Time;durP1;ratioP1;P1;durP2;ratioP2;P2;SDS_P1;SDS_P2;PMS_P1;PMS_P2;Temp;Humidity;BMP_temperature;BMP_pressure;BME280_temperature;BME280_humidity;BME280_pressure;Samples;Min_cycle;Max_cycle;Signal;HPM_P1;HPM_P2
2022/11/15 00:02:23;;;;;;;12.53;11.27;;;11.40;99.90;;;;;;2615278;39;20528;-75
2022/11/15 00:08:11;;;;;;;10.60;9.53;;;11.50;99.90;;;;;;2614543;54;20122;-79
2022/11/15 00:14:02;;;;;;;12.30;11.20;;;11.60;99.90;;;;;;2615630;54;20559;-78
2022/11/15 00:17:14;;;;;;;11.67;10.50;;;11.60;99.90;;;;;;2615901;54;20422;-80
2022/11/15 00:19:39;;;;;;;12.70;11.43;;;11.70;99.90;;;;;;2614951;39;20872;-79
2022/11/15 00:25:27;;;;;;;10.90;9.60;;;11.80;99.90;;;;;;2616394;39;20526;-80
2022/11/15 00:31:15;;;;;;;11.10;10.00;;;12.00;99.90;;;;;;2615283;54;20175;-79
2022/11/15 00:37:03;;;;;;;12.10;10.90;;;12.00;99.90;;;;;;2615702;31;20858;-79
2022/11/15 00:42:51;;;;;;;12.70;10.40;;;12.10;99.90;;;;;;2615803;54;20122;-79
2022/11/15 00:45:54;;;;;;;15.50;10.97;;;12.20;99.90;;;;;;2614822;54;20411;-79
2022/11/15 00:48:20;;;;;;;12.10;10.97;;;12.20;99.90;;;;;;2614685;54;20159;-79
2022/11/15 00:54:08;;;;;;;10.73;9.73;;;12.10;99.90;;;;;;2615342;54;20302;-78
2022/11/15 00:59:56;;;;;;;11.10;10.00;;;12.20;99.90;;;;;;2614734;54;20149;-79
2022/11/15 01:05:43;;;;;;;10.03;9.13;;;12.40;99.90;;;;;;2615472;54;20157;-77
2022/11/15 01:11:31;;;;;;;11.97;10.60;;;12.40;99.90;;;;;;2614057;54;20158;-78
2022/11/15 01:17:19;;;;;;;10.70;9.40;;;12.50;99.90;;;;;;2614682;54;20130;-77
2022/11/15 01:23:07;;;;;;;9.73;8.83;;;12.60;99.90;;;;;;2614533;54;20125;-77
2022/11/15 01:28:54;;;;;;;10.27;9.27;;;12.60;99.90;;;;;;2614580;54;20678;-74
2022/11/15 01:34:42;;;;;;;10.53;9.50;;;12.60;99.90;;;;;;2615298;39;20485;-75
2022/11/15 01:40:29;;;;;;;9.83;9.03;;;12.60;99.90;;;;;;2615508;54;20747;-76
2022/11/15 01:46:27;;;;;;;9.47;8.67;;;12.50;99.90;;;;;;2615265;54;20187;-74
2022/11/15 01:52:19;;;;;;;10.83;9.83;;;12.40;99.90;;;;;;2615705;54;20391;-80
2022/11/15 01:58:07;;;;;;;12.33;9.77;;;12.40;99.90;;;;;;2614911;54;20499;-80
2022/11/15 02:10:25;;;;;;;10.00;9.07;;;12.40;99.90;;;;;;2616285;39;20775;-74
2022/11/15 02:16:34;;;;;;;10.10;8.63;;;12.40;99.90;;;;;;2615757;54;20956;-75
2022/11/15 02:36:02;;;;;;;12.80;8.90;;;12.70;99.90;;;;;;2616408;31;20928;-75
2022/11/15 02:42:02;;;;;;;10.83;9.80;;;12.70;99.90;;;;;;2615787;54;20415;-74
2022/11/15 02:47:54;;;;;;;10.30;9.30;;;12.50;99.90;;;;;;2615470;54;20382;-75
2022/11/15 02:53:42;;;;;;;10.83;9.83;;;12.50;99.90;;;;;;2616006;54;20366;-75
2022/11/15 03:06:37;;;;;;;10.93;9.83;;;12.50;99.90;;;;;;2616776;39;20893;-75
2022/11/15 03:22:28;;;;;;;10.40;9.50;;;12.60;99.90;;;;;;2614805;54;20379;-80
2022/11/15 03:45:33;;;;;;;10.67;9.67;;;12.80;99.90;;;;;;2614119;54;20509;-77
2022/11/15 03:51:20;;;;;;;11.07;9.90;;;12.90;99.90;;;;;;2614087;54;20436;-77
2022/11/15 03:57:07;;;;;;;10.20;9.20;;;12.80;99.90;;;;;;2613996;39;20812;-77
2022/11/15 04:02:54;;;;;;;11.33;9.40;;;12.90;99.90;;;;;;2614230;54;20129;-79
2022/11/15 04:08:42;;;;;;;9.27;8.27;;;12.80;99.90;;;;;;2613676;54;20735;-78
2022/11/15 04:14:29;;;;;;;9.17;8.27;;;12.90;99.90;;;;;;2612533;54;20169;-78
2022/11/15 04:17:19;;;;;;;8.90;8.00;;;12.90;99.90;;;;;;2612312;54;20411;-79
2022/11/15 04:25:53;;;;;;;12.20;8.50;;;12.90;99.90;;;;;;2615428;54;20526;-78
2022/11/15 04:31:40;;;;;;;9.67;8.50;;;12.90;99.90;;;;;;2615850;54;20443;-78
2022/11/15 04:37:28;;;;;;;9.80;7.63;;;13.00;99.90;;;;;;2615920;54;20138;-75
2022/11/15 04:43:15;;;;;;;9.07;8.17;;;13.00;99.90;;;;;;2615427;54;20671;-76
2022/11/15 04:49:03;;;;;;;10.03;9.13;;;13.00;99.90;;;;;;2616247;39;20559;-75
2022/11/15 04:54:51;;;;;;;8.60;7.80;;;13.00;99.90;;;;;;2615369;54;20183;-75
2022/11/15 05:00:39;;;;;;;8.80;7.90;;;13.00;99.90;;;;;;2615336;54;20122;-77
2022/11/15 05:06:27;;;;;;;7.93;7.20;;;13.00;99.90;;;;;;2615844;54;20399;-74
2022/11/15 05:12:15;;;;;;;8.77;7.97;;;13.00;99.90;;;;;;2615231;54;20399;-75
2022/11/15 05:21:53;;;;;;;7.60;6.90;;;13.00;99.90;;;;;;2614604;54;20471;-75
2022/11/15 05:27:42;;;;;;;8.87;8.07;;;12.90;99.90;;;;;;2616201;39;20833;-74
2022/11/15 05:33:31;;;;;;;9.53;8.53;;;12.90;99.90;;;;;;2615042;54;20392;-74
2022/11/15 05:39:18;;;;;;;8.97;8.17;;;12.80;99.90;;;;;;2614476;54;20395;-74
2022/11/15 05:45:09;;;;;;;9.47;7.50;;;12.80;99.90;;;;;;2615375;54;20139;-74
2022/11/15 05:50:57;;;;;;;16.40;9.50;;;12.60;99.90;;;;;;2613860;54;20383;-75
2022/11/15 05:56:46;;;;;;;9.33;8.40;;;12.50;99.90;;;;;;2614091;54;20982;-75
2022/11/15 06:02:33;;;;;;;10.17;9.17;;;12.50;99.90;;;;;;2614686;54;20467;-75
2022/11/15 06:08:21;;;;;;;10.50;8.37;;;12.60;99.90;;;;;;2613825;54;20635;-75
2022/11/15 06:14:09;;;;;;;8.40;7.43;;;12.60;99.90;;;;;;2614994;54;20142;-77
2022/11/15 06:17:20;;;;;;;8.87;7.97;;;12.60;99.90;;;;;;2614214;54;20427;-74
2022/11/15 06:19:46;;;;;;;8.30;7.50;;;12.50;99.90;;;;;;2613321;54;20238;-75
2022/11/15 06:25:34;;;;;;;8.57;7.27;;;12.50;99.90;;;;;;2614492;54;20146;-77
2022/11/15 06:31:23;;;;;;;8.83;7.80;;;12.70;99.90;;;;;;2613925;54;20150;-75
2022/11/15 06:34:26;;;;;;;7.57;6.80;;;12.70;99.90;;;;;;2612932;47;20782;-76
2022/11/15 06:36:53;;;;;;;10.77;6.97;;;12.80;99.90;;;;;;2614716;54;20412;-75
2022/11/15 06:42:40;;;;;;;8.67;7.70;;;12.70;99.90;;;;;;2614812;54;20399;-78
2022/11/15 06:48:29;;;;;;;6.40;5.80;;;12.80;99.90;;;;;;2614724;54;20154;-76
2022/11/15 06:54:17;;;;;;;5.90;5.30;;;12.80;99.90;;;;;;2614404;54;20386;-75
2022/11/15 07:00:06;;;;;;;6.00;5.40;;;12.90;99.90;;;;;;2614092;54;20954;-75
2022/11/15 07:05:55;;;;;;;4.83;4.43;;;12.90;99.90;;;;;;2613093;54;20427;-79
2022/11/15 07:11:42;;;;;;;5.30;4.80;;;13.00;99.90;;;;;;2614324;46;20413;-79
2022/11/15 07:21:52;;;;;;;5.23;4.73;;;13.10;99.90;;;;;;2614836;54;20395;-77
2022/11/15 07:27:39;;;;;;;5.17;4.77;;;13.10;99.90;;;;;;2615270;39;20805;-77
2022/11/15 07:33:27;;;;;;;5.03;4.63;;;13.20;99.90;;;;;;2615347;54;20155;-80
2022/11/15 07:39:15;;;;;;;4.70;3.93;;;13.00;99.90;;;;;;2612762;54;20640;-79
2022/11/15 07:45:03;;;;;;;5.27;4.80;;;13.00;99.90;;;;;;2614312;54;20142;-80
2022/11/15 07:50:51;;;;;;;5.30;4.90;;;13.00;99.90;;;;;;2614674;54;20426;-75
2022/11/15 07:56:39;;;;;;;6.83;4.87;;;12.90;99.90;;;;;;2614850;54;20162;-79
2022/11/15 08:02:26;;;;;;;5.73;5.20;;;12.90;99.90;;;;;;2612906;54;20134;-79
2022/11/15 08:08:14;;;;;;;6.13;5.60;;;13.20;99.90;;;;;;2614980;54;20173;-79
2022/11/15 08:14:02;;;;;;;5.60;5.20;;;14.40;99.90;;;;;;2615454;54;20127;-81
2022/11/15 08:17:20;;;;;;;6.20;5.80;;;14.40;99.90;;;;;;2614931;46;20427;-79
2022/11/15 08:19:46;;;;;;;6.13;5.73;;;14.30;99.90;;;;;;2615345;47;20154;-80
2022/11/15 08:22:57;;;;;;;7.50;5.33;;;14.30;99.90;;;;;;2614424;54;20430;-80
2022/11/15 08:25:23;;;;;;;5.40;5.10;;;14.00;99.90;;;;;;2615226;54;20143;-79
2022/11/15 08:31:16;;;;;;;6.70;6.20;;;14.20;99.90;;;;;;2616485;46;20399;-80
2022/11/15 08:37:05;;;;;;;6.83;6.43;;;14.10;99.90;;;;;;2615761;54;20435;-80
2022/11/15 08:42:53;;;;;;;9.07;6.40;;;14.00;99.90;;;;;;2615067;54;20423;-80
2022/11/15 08:45:19;;;;;;;6.13;5.73;;;14.00;99.90;;;;;;2615556;54;20410;-80
2022/11/15 08:47:44;;;;;;;6.40;6.00;;;13.90;99.90;;;;;;2614037;54;20543;-80
2022/11/15 08:53:33;;;;;;;6.63;6.13;;;13.80;99.90;;;;;;2616458;54;20662;-80
2022/11/15 08:59:22;;;;;;;6.50;6.10;;;13.80;99.90;;;;;;2614564;31;20775;-79
2022/11/15 09:05:10;;;;;;;6.40;6.07;;;13.90;99.90;;;;;;2615187;54;20395;-79
2022/11/15 09:10:58;;;;;;;6.87;6.27;;;13.60;99.90;;;;;;2615875;54;20235;-77
2022/11/15 09:16:46;;;;;;;7.80;7.00;;;14.10;99.90;;;;;;2615044;54;20948;-77
2022/11/15 09:22:34;;;;;;;7.10;6.80;;;14.60;99.90;;;;;;2615151;54;20217;-77
2022/11/15 09:32:00;;;;;;;7.70;7.30;;;14.70;99.90;;;;;;2613210;39;20880;-77
2022/11/15 09:37:47;;;;;;;7.70;7.30;;;14.80;99.90;;;;;;2613455;54;20154;-77
2022/11/15 09:43:43;;;;;;;9.10;8.60;;;15.40;96.90;;;;;;2613832;54;20130;-77
2022/11/15 09:49:31;;;;;;;8.03;7.60;;;16.90;72.70;;;;;;2613558;54;20448;-77
2022/11/15 09:59:34;;;;;;;8.57;8.17;;;16.60;70.20;;;;;;2612752;54;20402;-77
2022/11/15 10:05:25;;;;;;;8.57;8.17;;;16.10;70.30;;;;;;2613505;54;20386;-75
2022/11/15 10:17:52;;;;;;;9.07;8.57;;;16.10;59.70;;;;;;2614117;54;21066;-81
2022/11/15 10:27:09;;;;;;;9.63;9.03;;;16.30;57.90;;;;;;2617199;54;20527;-80
2022/11/15 10:46:26;;;;;;;8.67;8.30;;;17.30;47.30;;;;;;2616304;54;20395;-79
2022/11/15 10:52:21;;;;;;;9.90;9.40;;;17.80;39.80;;;;;;2617033;39;20529;-77
2022/11/15 10:58:31;;;;;;;10.37;9.67;;;17.80;39.20;;;;;;2623406;54;20403;-78
2022/11/15 11:04:19;;;;;;;9.60;9.20;;;18.80;38.00;;;;;;2623095;54;20540;-79
2022/11/15 11:10:21;;;;;;;9.50;9.10;;;18.30;37.30;;;;;;2624491;54;20150;-79
2022/11/15 11:46:36;;;;;;;10.17;9.77;;;18.90;23.70;;;;;;2615782;54;20910;-76
2022/11/15 11:58:55;;;;;;;10.93;10.53;;;18.20;22.70;;;;;;2614046;54;20371;-75
2022/11/15 12:04:49;;;;;;;11.63;11.13;;;17.50;23.80;;;;;;2614150;54;20415;-74
2022/11/15 12:10:39;;;;;;;10.30;9.90;;;19.30;22.00;;;;;;2613209;54;20987;-73
2022/11/15 12:16:29;;;;;;;11.03;10.43;;;18.70;21.50;;;;;;2613984;54;20419;-76
2022/11/15 12:22:20;;;;;;;10.60;10.10;;;18.10;21.90;;;;;;2613840;54;20936;-74
2022/11/15 12:28:15;;;;;;;10.23;9.73;;;18.30;20.80;;;;;;2614367;54;20379;-74
2022/11/15 12:40:36;;;;;;;10.33;9.93;;;20.00;18.80;;;;;;2612995;54;20395;-77
2022/11/15 12:46:30;;;;;;;10.43;9.93;;;18.30;21.00;;;;;;2614959;54;20499;-78
2022/11/15 12:52:19;;;;;;;10.60;10.10;;;17.50;21.10;;;;;;2615216;54;20500;-78
2022/11/15 12:58:28;;;;;;;10.27;9.70;;;16.90;21.30;;;;;;2613226;54;20346;-78
2022/11/15 13:04:19;;;;;;;10.27;9.67;;;17.80;21.10;;;;;;2614099;54;20384;-78
2022/11/15 13:10:09;;;;;;;9.90;9.50;;;18.50;21.00;;;;;;2614549;39;20774;-78
2022/11/15 13:16:01;;;;;;;10.93;10.03;;;18.00;21.50;;;;;;2614684;54;20426;-78
2022/11/15 13:28:00;;;;;;;10.53;9.93;;;17.60;22.60;;;;;;2614788;54;20430;-79
2022/11/15 13:31:03;;;;;;;10.50;9.90;;;16.30;25.70;;;;;;2615406;54;20424;-78
2022/11/15 13:36:52;;;;;;;10.70;10.20;;;15.80;27.80;;;;;;2613470;54;20402;-77
2022/11/15 13:42:39;;;;;;;9.90;9.27;;;15.40;29.50;;;;;;2614412;54;20386;-78
2022/11/15 13:48:30;;;;;;;10.27;9.80;;;15.50;30.20;;;;;;2615795;39;20621;-79
2022/11/15 13:54:28;;;;;;;10.27;9.43;;;14.90;31.30;;;;;;2615171;54;20418;-78
2022/11/15 14:00:27;;;;;;;9.63;9.13;;;15.00;33.50;;;;;;2616240;54;20971;-78
2022/11/15 14:06:18;;;;;;;10.87;9.97;;;14.60;35.60;;;;;;2615678;54;20382;-78
2022/11/15 14:12:32;;;;;;;9.47;9.00;;;14.60;38.70;;;;;;2615441;54;20483;-77
2022/11/15 14:18:50;;;;;;;9.70;9.20;;;14.50;42.80;;;;;;2614337;54;20454;-79
2022/11/15 14:24:38;;;;;;;10.10;9.37;;;14.60;45.70;;;;;;2615145;54;20495;-79
2022/11/15 14:30:25;;;;;;;9.47;9.00;;;14.50;50.40;;;;;;2615080;54;20466;-81
2022/11/15 14:36:19;;;;;;;9.80;9.10;;;14.40;56.10;;;;;;2614312;54;20145;-78
2022/11/15 14:42:09;;;;;;;10.63;9.90;;;14.30;59.60;;;;;;2615708;39;20802;-78
2022/11/15 14:47:57;;;;;;;10.00;9.50;;;14.20;66.70;;;;;;2614583;54;20394;-78
2022/11/15 14:53:45;;;;;;;11.60;10.00;;;14.10;72.50;;;;;;2615745;54;20183;-78
2022/11/15 14:59:33;;;;;;;9.93;9.23;;;14.10;77.80;;;;;;2615963;54;20399;-77
2022/11/15 15:05:24;;;;;;;10.27;9.57;;;14.00;82.10;;;;;;2612699;54;20627;-79
2022/11/15 15:17:44;;;;;;;10.40;9.70;;;14.00;86.50;;;;;;2614455;54;20391;-78
2022/11/15 15:23:35;;;;;;;11.37;10.67;;;13.80;91.60;;;;;;2614797;54;20370;-78
2022/11/15 15:26:33;;;;;;;10.10;9.50;;;13.80;91.40;;;;;;2615988;54;20419;-79
2022/11/15 15:28:59;;;;;;;10.43;9.63;;;13.80;92.60;;;;;;2615247;54;20428;-77
2022/11/15 15:34:46;;;;;;;10.20;9.27;;;13.80;93.10;;;;;;2615805;54;20142;-78
2022/11/15 15:40:34;;;;;;;10.57;9.97;;;13.90;92.70;;;;;;2616042;54;20165;-79
2022/11/15 15:46:22;;;;;;;10.80;10.10;;;13.90;92.70;;;;;;2615840;54;20154;-79
2022/11/15 15:52:09;;;;;;;9.07;8.57;;;14.00;91.90;;;;;;2613067;54;20135;-78
2022/11/15 15:57:57;;;;;;;9.00;8.60;;;13.90;93.10;;;;;;2612827;39;20524;-77
2022/11/15 16:03:45;;;;;;;9.77;9.27;;;13.80;93.60;;;;;;2615481;39;20498;-78
2022/11/15 16:15:40;;;;;;;10.47;9.77;;;13.80;95.20;;;;;;2613973;54;20386;-78
2022/11/15 16:21:28;;;;;;;10.07;9.37;;;13.80;95.70;;;;;;2614021;54;20455;-78
2022/11/15 16:31:03;;;;;;;9.40;8.90;;;13.80;97.50;;;;;;2616073;47;20443;-75
2022/11/15 16:36:52;;;;;;;10.30;9.50;;;13.80;98.50;;;;;;2615557;54;20378;-75
2022/11/15 16:42:39;;;;;;;8.80;8.30;;;13.80;99.70;;;;;;2614687;54;20504;-76
2022/11/15 16:48:27;;;;;;;9.40;8.90;;;13.80;99.90;;;;;;2613837;54;20130;-75
2022/11/15 16:54:15;;;;;;;9.00;8.50;;;13.80;99.90;;;;;;2616487;54;20962;-79
2022/11/15 17:00:03;;;;;;;10.37;9.80;;;13.90;99.90;;;;;;2614552;54;20943;-79
2022/11/15 17:05:51;;;;;;;10.23;9.53;;;14.00;99.90;;;;;;2613581;54;20453;-78
2022/11/15 17:11:40;;;;;;;8.73;8.33;;;13.90;99.90;;;;;;2613816;54;20974;-77
2022/11/15 17:17:28;;;;;;;8.80;8.40;;;13.90;99.90;;;;;;2615719;39;20794;-79
2022/11/15 17:23:16;;;;;;;8.47;8.07;;;14.00;99.90;;;;;;2615374;54;20199;-79
2022/11/15 17:26:33;;;;;;;9.37;8.83;;;13.90;99.90;;;;;;2614589;39;20753;-79
2022/11/15 17:29:00;;;;;;;9.90;9.40;;;14.00;99.90;;;;;;2615045;54;20430;-78
2022/11/15 17:34:47;;;;;;;11.80;10.70;;;14.10;99.90;;;;;;2613933;54;20398;-81
2022/11/15 17:40:35;;;;;;;8.37;7.97;;;14.10;99.90;;;;;;2614986;54;20158;-77
2022/11/15 17:46:23;;;;;;;8.87;7.93;;;14.10;99.90;;;;;;2614714;54;20174;-77
2022/11/15 17:52:11;;;;;;;8.83;8.33;;;14.10;99.90;;;;;;2615418;54;20390;-78
2022/11/15 17:57:58;;;;;;;8.63;8.17;;;14.20;99.90;;;;;;2615170;54;20150;-77
2022/11/15 18:03:46;;;;;;;8.83;8.33;;;14.10;99.90;;;;;;2614030;54;20158;-79
2022/11/15 18:09:34;;;;;;;9.80;9.20;;;14.10;99.90;;;;;;2615727;54;20387;-79
2022/11/15 18:15:22;;;;;;;8.30;7.90;;;14.20;99.90;;;;;;2614140;54;20157;-80
2022/11/15 18:18:25;;;;;;;8.40;8.00;;;14.30;99.90;;;;;;2614784;54;20399;-78
2022/11/15 18:37:38;;;;;;;9.00;8.30;;;14.30;99.90;;;;;;2615103;54;20402;-77
2022/11/15 18:43:26;;;;;;;8.27;7.87;;;14.30;99.90;;;;;;2615413;54;20437;-78
2022/11/15 18:49:19;;;;;;;8.80;8.20;;;14.40;99.90;;;;;;2614123;54;20414;-79
2022/11/15 18:55:08;;;;;;;8.10;7.70;;;14.30;99.90;;;;;;2616065;54;20379;-79
2022/11/15 19:11:52;;;;;;;7.70;7.20;;;14.30;99.90;;;;;;2616523;54;20399;-80
2022/11/15 19:17:39;;;;;;;8.50;8.10;;;14.20;99.90;;;;;;2616563;54;21069;-79
2022/11/15 19:23:27;;;;;;;8.67;8.00;;;14.10;99.90;;;;;;2616635;54;20146;-81
2022/11/15 19:26:32;;;;;;;8.13;7.57;;;14.00;99.90;;;;;;2616098;39;20737;-79
2022/11/15 19:29:00;;;;;;;8.23;7.70;;;14.00;99.90;;;;;;2615499;47;20419;-82
2022/11/15 19:34:48;;;;;;;6.83;6.43;;;13.90;99.90;;;;;;2616540;54;20963;-81
2022/11/15 19:40:36;;;;;;;7.90;7.40;;;13.80;99.90;;;;;;2616216;54;20371;-79
2022/11/15 19:46:25;;;;;;;6.97;6.47;;;13.80;99.90;;;;;;2615864;54;20250;-81
2022/11/15 19:48:53;;;;;;;7.20;6.70;;;13.80;99.90;;;;;;2615041;54;20424;-82
2022/11/15 19:51:20;;;;;;;7.90;7.30;;;13.70;99.90;;;;;;2614508;47;20445;-78
2022/11/15 19:57:11;;;;;;;6.47;5.83;;;13.60;99.90;;;;;;2615643;54;20384;-80
2022/11/15 20:03:00;;;;;;;6.23;4.93;;;13.50;99.90;;;;;;2615277;54;20207;-80
2022/11/15 20:08:48;;;;;;;4.73;4.43;;;13.30;99.90;;;;;;2614719;54;20130;-80
2022/11/15 20:14:36;;;;;;;5.47;4.97;;;13.30;99.90;;;;;;2613968;47;20395;-80
2022/11/15 20:20:24;;;;;;;4.97;4.57;;;13.20;99.90;;;;;;2615149;54;20707;-80
2022/11/15 20:26:12;;;;;;;6.30;5.20;;;13.20;99.90;;;;;;2615373;54;20643;-81
2022/11/15 20:32:00;;;;;;;5.63;4.50;;;13.10;99.90;;;;;;2616199;54;20374;-80
2022/11/15 20:37:48;;;;;;;5.77;5.27;;;13.20;99.90;;;;;;2614693;54;20183;-77
2022/11/15 20:43:36;;;;;;;5.30;4.90;;;13.30;99.90;;;;;;2615840;54;20134;-74
2022/11/15 20:49:24;;;;;;;5.13;4.73;;;13.30;99.90;;;;;;2615001;54;20398;-76
2022/11/15 20:55:12;;;;;;;5.80;4.37;;;13.20;99.90;;;;;;2615579;54;20251;-76
2022/11/15 21:01:00;;;;;;;5.03;4.50;;;13.20;99.90;;;;;;2615830;54;20129;-77
2022/11/15 21:06:47;;;;;;;5.30;4.80;;;13.10;99.90;;;;;;2615645;54;20134;-77
2022/11/15 21:12:35;;;;;;;4.97;4.57;;;13.10;99.90;;;;;;2615620;54;20178;-81
2022/11/15 21:18:24;;;;;;;5.83;5.30;;;13.20;99.90;;;;;;2615442;54;20134;-80
2022/11/15 21:24:12;;;;;;;5.37;4.97;;;13.20;99.90;;;;;;2615431;39;20717;-80
2022/11/15 21:26:38;;;;;;;5.43;4.90;;;13.20;99.90;;;;;;2615255;47;20515;-80
2022/11/15 21:29:04;;;;;;;7.80;4.80;;;13.20;99.90;;;;;;2614716;54;20158;-81
2022/11/15 21:34:53;;;;;;;5.30;4.90;;;13.20;99.90;;;;;;2617852;54;20396;-80
2022/11/15 21:40:40;;;;;;;5.60;5.10;;;13.10;99.90;;;;;;2617390;54;20363;-80
2022/11/15 21:46:30;;;;;;;5.80;5.20;;;13.00;99.90;;;;;;2617549;54;20106;-80
2022/11/15 21:52:19;;;;;;;6.10;5.60;;;13.10;99.90;;;;;;2617067;54;20955;-80
2022/11/15 21:58:06;;;;;;;5.50;5.00;;;13.10;99.90;;;;;;2617542;54;20455;-80
2022/11/15 22:03:54;;;;;;;5.20;4.80;;;13.00;99.90;;;;;;2616927;54;20122;-80
2022/11/15 22:09:43;;;;;;;5.17;4.67;;;13.10;99.90;;;;;;2617201;54;20154;-79
2022/11/15 22:15:31;;;;;;;4.30;3.90;;;13.00;99.90;;;;;;2617622;54;20406;-81
2022/11/15 22:21:19;;;;;;;4.90;4.50;;;12.90;99.90;;;;;;2617362;54;20678;-80
2022/11/15 22:31:06;;;;;;;4.23;3.83;;;12.80;99.90;;;;;;2618251;54;20426;-80
2022/11/15 22:36:54;;;;;;;4.63;4.23;;;12.80;99.90;;;;;;2618364;54;20423;-80
2022/11/15 22:42:42;;;;;;;6.10;4.57;;;12.80;99.90;;;;;;2618326;54;20158;-81
2022/11/15 22:48:33;;;;;;;4.37;3.77;;;12.70;99.90;;;;;;2618277;54;20134;-80
2022/11/15 22:54:20;;;;;;;4.37;3.97;;;12.70;99.90;;;;;;2616412;54;20520;-80
2022/11/15 23:03:51;;;;;;;5.17;4.67;;;12.70;99.90;;;;;;2617332;39;20958;-80
2022/11/15 23:09:38;;;;;;;3.97;3.60;;;12.80;99.90;;;;;;2616735;39;20758;-77
2022/11/15 23:16:21;;;;;;;4.53;4.10;;;12.70;99.90;;;;;;2616402;54;20488;-77
2022/11/15 23:37:14;;;;;;;5.00;4.50;;;12.50;99.90;;;;;;2616084;54;20368;-76
2022/11/15 23:43:02;;;;;;;5.97;5.37;;;12.50;99.90;;;;;;2617664;54;20459;-75
2022/11/15 23:48:49;;;;;;;5.73;4.90;;;12.50;99.90;;;;;;2617806;39;20201;-77
2022/11/15 23:54:37;;;;;;;7.30;5.13;;;12.50;99.90;;;;;;2617567;54;20119;-74
